createdAt,value
2018-07-15T00:02:06.451Z,9.77
2018-07-15T00:04:34.757Z,9.40
2018-07-15T00:07:03.106Z,7.80
2018-07-15T00:09:31.452Z,9.93
2018-07-15T00:11:59.764Z,8.57
2018-07-15T00:14:28.309Z,9.33
2018-07-15T00:16:56.540Z,8.27
2018-07-15T00:19:24.925Z,11.60
2018-07-15T00:21:53.167Z,9.57
2018-07-15T00:24:21.579Z,10.07
2018-07-15T00:26:50.166Z,8.33
2018-07-15T00:29:18.579Z,10.47
2018-07-15T00:31:46.829Z,9.60
2018-07-15T00:34:15.181Z,9.80
2018-07-15T00:36:43.550Z,11.70
2018-07-15T00:39:12.816Z,9.27
2018-07-15T00:41:41.029Z,9.30
2018-07-15T00:44:09.454Z,13.03
2018-07-15T00:46:37.715Z,9.93
2018-07-15T00:49:06.350Z,10.70
2018-07-15T00:51:34.718Z,9.50
2018-07-15T00:54:03.030Z,9.60
2018-07-15T00:56:31.296Z,9.73
2018-07-15T00:58:59.581Z,9.23
2018-07-15T01:01:27.953Z,8.00
2018-07-15T01:03:56.217Z,8.40
2018-07-15T01:06:24.505Z,9.20
2018-07-15T01:08:52.762Z,8.17
2018-07-15T01:11:21.090Z,7.90
2018-07-15T01:13:49.454Z,8.10
2018-07-15T01:16:17.659Z,9.03
2018-07-15T01:18:45.934Z,8.70
2018-07-15T01:21:15.295Z,9.83
2018-07-15T01:23:43.705Z,10.60
2018-07-15T01:26:12.045Z,10.03
2018-07-15T01:28:40.314Z,10.90
2018-07-15T01:31:09.683Z,10.40
2018-07-15T01:33:37.908Z,11.93
2018-07-15T01:36:06.439Z,12.13
2018-07-15T01:38:34.868Z,10.03
2018-07-15T01:41:03.205Z,9.60
2018-07-15T01:43:31.432Z,9.90
2018-07-15T01:45:59.913Z,9.07
2018-07-15T01:48:28.384Z,10.50
2018-07-15T01:50:56.658Z,10.07
2018-07-15T01:53:24.937Z,10.53
2018-07-15T01:55:53.206Z,10.50
2018-07-15T01:58:21.643Z,13.37
2018-07-15T02:00:49.972Z,10.17
2018-07-15T02:03:18.201Z,10.77
2018-07-15T02:05:46.477Z,9.93
2018-07-15T02:08:14.960Z,9.77
2018-07-15T02:10:43.633Z,12.10
2018-07-15T02:13:11.711Z,9.80
2018-07-15T02:15:39.898Z,10.63
2018-07-15T02:18:08.214Z,9.17
2018-07-15T02:20:36.371Z,9.20
2018-07-15T02:23:04.674Z,10.80
2018-07-15T02:25:54.478Z,10.23
2018-07-15T02:28:22.712Z,9.90
2018-07-15T02:30:51.198Z,10.60
2018-07-15T02:33:19.425Z,10.67
2018-07-15T02:35:47.658Z,11.23
2018-07-15T02:38:15.865Z,12.30
2018-07-15T02:40:44.857Z,11.63
2018-07-15T02:43:13.237Z,9.40
2018-07-15T02:45:41.812Z,10.87
2018-07-15T02:48:10.018Z,11.70
2018-07-15T02:50:38.285Z,10.87
2018-07-15T02:53:06.685Z,14.57
2018-07-15T02:55:35.100Z,9.10
2018-07-15T02:58:03.408Z,10.57
2018-07-15T03:00:31.830Z,8.37
2018-07-15T03:03:00.934Z,10.47
2018-07-15T03:05:29.365Z,9.87
2018-07-15T03:07:57.965Z,9.47
2018-07-15T03:10:26.245Z,12.67
2018-07-15T03:12:54.553Z,9.07
2018-07-15T03:15:22.976Z,10.40
2018-07-15T03:17:51.357Z,11.33
2018-07-15T03:20:19.954Z,10.83
2018-07-15T03:22:48.189Z,11.43
2018-07-15T03:25:16.509Z,13.27
2018-07-15T03:27:44.730Z,12.00
2018-07-15T03:30:13.478Z,12.53
2018-07-15T03:32:41.967Z,11.17
2018-07-15T03:35:10.214Z,13.27
2018-07-15T03:37:38.498Z,15.10
2018-07-15T03:40:06.950Z,13.47
2018-07-15T03:42:35.176Z,10.57
2018-07-15T03:45:04.549Z,9.97
2018-07-15T03:47:32.903Z,10.53
2018-07-15T03:50:01.232Z,10.67
2018-07-15T03:52:29.505Z,9.70
2018-07-15T03:54:57.747Z,12.57
2018-07-15T03:57:25.993Z,11.60
2018-07-15T03:59:54.249Z,11.73
2018-07-15T04:02:22.493Z,10.77
2018-07-15T04:04:50.941Z,9.80
2018-07-15T04:07:19.538Z,13.03
2018-07-15T04:09:47.740Z,11.77
2018-07-15T04:12:15.988Z,9.93
2018-07-15T04:14:44.289Z,11.23
2018-07-15T04:17:12.649Z,12.03
2018-07-15T04:19:40.921Z,12.40
2018-07-15T04:22:09.221Z,11.07
2018-07-15T04:24:37.474Z,14.67
2018-07-15T04:27:05.648Z,12.63
2018-07-15T04:29:34.862Z,16.57
2018-07-15T04:32:03.133Z,13.27
2018-07-15T04:34:31.702Z,11.07
2018-07-15T04:37:00.113Z,15.47
2018-07-15T04:39:28.467Z,13.07
2018-07-15T04:41:56.790Z,12.57
2018-07-15T04:44:25.029Z,12.40
2018-07-15T04:46:53.322Z,11.83
2018-07-15T04:49:21.772Z,13.30
2018-07-15T04:51:50.149Z,13.47
2018-07-15T04:54:18.454Z,13.23
2018-07-15T04:56:46.714Z,11.37
2018-07-15T04:59:15.007Z,12.13
2018-07-15T05:01:43.845Z,11.77
2018-07-15T05:04:13.721Z,11.17
2018-07-15T05:06:42.123Z,14.87
2018-07-15T05:09:10.413Z,11.67
2018-07-15T05:11:39.175Z,12.30
2018-07-15T05:14:08.781Z,14.67
2018-07-15T05:16:38.707Z,15.37
2018-07-15T05:19:07.062Z,14.70
2018-07-15T05:21:35.716Z,13.33
2018-07-15T05:24:03.986Z,14.80
2018-07-15T05:26:32.215Z,18.53
2018-07-15T05:29:00.490Z,14.33
2018-07-15T05:31:28.834Z,14.00
2018-07-15T05:33:57.467Z,16.83
2018-07-15T05:36:25.692Z,14.47
2018-07-15T05:38:53.984Z,15.93
2018-07-15T05:41:23.217Z,16.23
2018-07-15T05:43:51.553Z,14.27
2018-07-15T05:46:19.842Z,12.93
2018-07-15T05:48:48.081Z,13.93
2018-07-15T05:51:16.305Z,14.03
2018-07-15T05:53:45.130Z,13.67
2018-07-15T05:56:13.386Z,13.83
2018-07-15T05:58:41.614Z,15.40
2018-07-15T06:01:09.888Z,12.20
2018-07-15T06:03:38.121Z,13.43
2018-07-15T06:06:06.447Z,11.93
2018-07-15T06:08:34.738Z,12.20
2018-07-15T06:11:03.762Z,14.53
2018-07-15T06:13:32.100Z,12.80
2018-07-15T06:16:00.311Z,12.07
2018-07-15T06:18:28.708Z,12.33
2018-07-15T06:20:57.006Z,13.47
2018-07-15T06:23:25.221Z,12.90
2018-07-15T06:25:53.486Z,11.47
2018-07-15T06:28:22.205Z,12.23
2018-07-15T06:30:50.576Z,13.27
2018-07-15T06:33:18.830Z,11.30
2018-07-15T06:35:47.862Z,12.57
2018-07-15T06:38:16.189Z,13.47
2018-07-15T06:40:44.531Z,10.53
2018-07-15T06:43:13.077Z,11.30
2018-07-15T06:45:41.331Z,11.37
2018-07-15T06:48:09.577Z,11.27
2018-07-15T06:50:37.809Z,11.07
2018-07-15T06:53:06.144Z,12.17
2018-07-15T06:55:34.386Z,10.40
2018-07-15T06:58:02.641Z,11.70
2018-07-15T07:00:31.107Z,18.10
2018-07-15T07:02:59.484Z,10.13
2018-07-15T07:05:27.734Z,9.90
2018-07-15T07:07:55.981Z,11.43
2018-07-15T07:10:24.195Z,10.23
2018-07-15T07:12:52.849Z,9.37
2018-07-15T07:15:21.085Z,9.67
2018-07-15T07:17:49.382Z,11.37
2018-07-15T07:20:17.625Z,9.77
2018-07-15T07:22:45.845Z,10.40
2018-07-15T07:25:14.172Z,10.47
2018-07-15T07:27:42.417Z,9.97
2018-07-15T07:30:10.725Z,10.10
2018-07-15T07:32:39.025Z,9.27
2018-07-15T07:35:07.591Z,9.33
2018-07-15T07:37:36.432Z,10.43
2018-07-15T07:40:04.705Z,9.73
2018-07-15T07:42:33.030Z,10.13
2018-07-15T07:45:01.375Z,10.53
2018-07-15T07:47:29.680Z,9.50
2018-07-15T07:49:58.242Z,8.30
2018-07-15T07:52:26.494Z,8.90
2018-07-15T07:54:54.754Z,9.40
2018-07-15T07:57:22.736Z,9.70
2018-07-15T07:59:51.104Z,8.63
2018-07-15T08:02:19.489Z,8.30
2018-07-15T08:04:47.762Z,8.07
2018-07-15T08:07:16.026Z,8.33
2018-07-15T08:09:44.393Z,8.83
2018-07-15T08:12:12.731Z,8.47
2018-07-15T08:14:40.969Z,8.87
2018-07-15T08:17:09.229Z,7.73
2018-07-15T08:19:37.713Z,7.73
2018-07-15T08:22:05.962Z,7.73
2018-07-15T08:36:05.020Z,7.07
2018-07-15T08:38:33.265Z,6.57
2018-07-15T08:41:01.501Z,6.47
2018-07-15T08:43:29.822Z,5.83
2018-07-15T08:45:58.102Z,5.47
2018-07-15T08:48:26.333Z,6.60
2018-07-15T08:50:54.570Z,6.23
2018-07-15T08:53:22.909Z,4.90
2018-07-15T08:55:51.052Z,4.60
2018-07-15T08:58:19.357Z,4.87
2018-07-15T09:00:47.670Z,7.50
2018-07-15T09:03:16.668Z,7.27
2018-07-15T09:05:45.141Z,6.20
2018-07-15T09:08:13.419Z,6.43
2018-07-15T09:10:41.713Z,7.00
2018-07-15T09:13:09.993Z,7.80
2018-07-15T09:15:38.249Z,6.53
2018-07-15T09:18:06.660Z,6.73
2018-07-15T09:20:35.018Z,6.17
2018-07-15T09:23:03.600Z,6.47
2018-07-15T09:25:31.933Z,6.30
2018-07-15T09:28:00.324Z,5.47
2018-07-15T09:30:29.289Z,4.13
2018-07-15T09:32:57.494Z,3.03
2018-07-15T09:35:25.756Z,3.00
2018-07-15T09:37:54.037Z,2.43
2018-07-15T09:40:22.918Z,2.83
2018-07-15T09:42:51.496Z,3.00
2018-07-15T09:45:20.825Z,2.37
2018-07-15T09:47:49.513Z,5.43
2018-07-15T09:50:18.015Z,3.60
2018-07-15T09:52:46.320Z,3.17
2018-07-15T09:55:15.262Z,4.10
2018-07-15T09:57:43.312Z,3.90
2018-07-15T10:00:17.602Z,3.10
2018-07-15T10:02:45.802Z,2.80
2018-07-15T10:05:14.637Z,2.53
2018-07-15T10:07:42.876Z,2.53
2018-07-15T10:10:11.251Z,2.60
2018-07-15T10:12:39.450Z,2.30
2018-07-15T10:15:07.574Z,3.30
2018-07-15T10:17:35.906Z,3.03
2018-07-15T10:20:04.263Z,3.13
2018-07-15T10:22:32.488Z,3.07
2018-07-15T10:25:00.778Z,3.50
2018-07-15T10:27:29.105Z,4.37
2018-07-15T10:29:58.362Z,4.73
2018-07-15T10:32:26.605Z,3.63
2018-07-15T10:34:54.591Z,4.27
2018-07-15T10:37:22.554Z,5.00
2018-07-15T10:39:50.869Z,5.17
2018-07-15T10:42:19.097Z,3.63
2018-07-15T10:44:47.514Z,3.40
2018-07-15T10:47:15.721Z,4.13
2018-07-15T10:49:44.043Z,4.20
2018-07-15T10:52:12.390Z,4.60
2018-07-15T10:54:40.586Z,5.67
2018-07-15T10:57:08.626Z,3.47
2018-07-15T10:59:37.493Z,3.53
2018-07-15T11:02:08.230Z,4.10
2018-07-15T11:04:37.018Z,4.30
2018-07-15T11:07:05.254Z,4.53
2018-07-15T11:09:33.675Z,4.50
2018-07-15T11:12:01.897Z,4.10
2018-07-15T11:14:30.954Z,3.80
2018-07-15T11:16:59.377Z,4.77
2018-07-15T11:19:27.673Z,4.57
2018-07-15T11:21:55.878Z,5.17
2018-07-15T11:24:24.078Z,5.97
2018-07-15T11:26:53.306Z,4.50
2018-07-15T11:29:21.890Z,5.73
2018-07-15T11:31:50.077Z,4.50
2018-07-15T11:34:18.327Z,4.27
2018-07-15T11:36:46.635Z,5.33
2018-07-15T11:39:15.401Z,4.37
2018-07-15T11:41:43.701Z,4.43
2018-07-15T11:44:11.930Z,4.90
2018-07-15T11:46:40.247Z,4.67
2018-07-15T11:49:08.589Z,4.30
2018-07-15T11:51:36.975Z,6.37
2018-07-15T11:54:05.223Z,4.37
2018-07-15T11:56:33.553Z,4.93
2018-07-15T11:59:01.885Z,3.70
2018-07-15T12:01:30.188Z,4.43
2018-07-15T12:03:58.989Z,4.40
2018-07-15T12:06:27.237Z,5.93
2018-07-15T12:08:55.505Z,4.23
2018-07-15T12:11:23.893Z,4.77
2018-07-15T12:13:52.254Z,4.83
2018-07-15T12:16:20.802Z,5.87
2018-07-15T12:18:49.013Z,4.77
2018-07-15T12:21:17.400Z,5.00
2018-07-15T12:23:46.010Z,5.10
2018-07-15T12:26:14.781Z,4.30
2018-07-15T12:28:43.710Z,4.97
2018-07-15T12:31:12.206Z,5.07
2018-07-15T12:33:40.449Z,5.57
2018-07-15T12:36:08.705Z,4.00
2018-07-15T12:38:37.046Z,3.83
2018-07-15T12:41:05.624Z,8.17
2018-07-15T12:43:33.953Z,4.23
2018-07-15T12:46:02.108Z,6.20
2018-07-15T12:48:31.069Z,4.50
2018-07-15T12:50:59.305Z,5.47
2018-07-15T12:53:27.610Z,4.63
2018-07-15T12:55:55.809Z,4.37
2018-07-15T12:58:24.073Z,4.30
2018-07-15T13:00:52.421Z,7.67
2018-07-15T13:03:20.786Z,4.33
2018-07-15T13:05:49.042Z,3.70
2018-07-15T13:08:17.274Z,4.50
2018-07-15T13:10:45.568Z,3.60
2018-07-15T13:13:13.873Z,5.37
2018-07-15T13:15:42.355Z,4.43
2018-07-15T13:18:10.632Z,6.17
2018-07-15T13:20:38.910Z,3.93
2018-07-15T13:23:07.445Z,4.13
2018-07-15T13:25:35.773Z,6.93
2018-07-15T13:28:04.032Z,5.87
2018-07-15T13:30:32.227Z,3.70
2018-07-15T13:33:00.525Z,4.23
2018-07-15T13:35:28.877Z,4.13
2018-07-15T13:37:56.865Z,3.27
2018-07-15T13:40:25.093Z,3.30
2018-07-15T13:42:53.858Z,4.63
2018-07-15T13:45:22.845Z,3.57
2018-07-15T13:47:51.235Z,3.60
2018-07-15T13:50:19.429Z,3.07
2018-07-15T13:52:47.643Z,3.17
2018-07-15T13:55:15.858Z,3.03
2018-07-15T13:57:44.584Z,6.20
2018-07-15T14:00:13.481Z,4.00
2018-07-15T14:02:41.690Z,6.03
2018-07-15T14:05:09.941Z,2.50
2018-07-15T14:07:38.150Z,2.43
2018-07-15T14:10:06.435Z,3.83
2018-07-15T14:12:34.662Z,3.63
2018-07-15T14:15:02.967Z,1.80
2018-07-15T14:17:31.169Z,4.70
2018-07-15T14:19:59.570Z,2.10
2018-07-15T14:22:28.893Z,2.70
2018-07-15T14:24:57.146Z,7.63
2018-07-15T14:27:25.399Z,2.37
2018-07-15T14:29:53.681Z,2.23
2018-07-15T14:32:22.021Z,3.77
2018-07-15T14:34:50.236Z,2.57
2018-07-15T14:37:20.227Z,2.10
2018-07-15T14:39:48.473Z,2.47
2018-07-15T14:42:16.714Z,2.33
2018-07-15T14:44:45.579Z,3.30
2018-07-15T14:47:14.174Z,2.73
2018-07-15T14:49:42.385Z,2.63
2018-07-15T14:52:10.686Z,3.03
2018-07-15T14:54:38.951Z,2.90
2018-07-15T14:57:07.786Z,3.57
2018-07-15T14:59:36.393Z,3.63
2018-07-15T15:02:04.737Z,2.93
2018-07-15T15:04:32.988Z,4.37
2018-07-15T15:07:01.216Z,3.00
2018-07-15T15:09:30.358Z,2.97
2018-07-15T15:11:58.723Z,2.87
2018-07-15T15:14:27.012Z,2.63
2018-07-15T15:16:55.239Z,2.80
2018-07-15T15:19:23.504Z,2.77
2018-07-15T15:21:51.841Z,3.43
2018-07-15T15:24:20.330Z,3.30
2018-07-15T15:26:48.272Z,3.20
2018-07-15T15:29:16.622Z,2.60
2018-07-15T15:31:44.900Z,2.37
2018-07-15T15:34:13.190Z,2.77
2018-07-15T15:36:41.198Z,2.77
2018-07-15T15:39:09.395Z,2.97
2018-07-15T15:41:37.883Z,2.10
2018-07-15T15:44:06.183Z,2.50
2018-07-15T15:46:34.457Z,2.50
2018-07-15T15:49:02.812Z,2.77
2018-07-15T15:51:31.204Z,2.77
2018-07-15T15:53:59.444Z,3.47
2018-07-15T15:56:28.081Z,2.33
2018-07-15T15:58:56.280Z,2.97
2018-07-15T16:01:24.557Z,3.57
2018-07-15T16:03:52.967Z,2.40
2018-07-15T16:06:24.166Z,2.77
2018-07-15T16:08:52.518Z,2.80
2018-07-15T16:11:20.982Z,3.37
2018-07-15T16:13:49.469Z,3.17
2018-07-15T16:16:17.729Z,4.80
2018-07-15T16:18:46.007Z,3.23
2018-07-15T16:21:14.396Z,2.87
2018-07-15T16:23:43.537Z,3.90
2018-07-15T16:26:11.868Z,3.43
2018-07-15T16:28:40.111Z,2.70
2018-07-15T16:31:08.371Z,2.90
2018-07-15T16:33:36.830Z,4.53
2018-07-15T16:36:05.080Z,2.53
2018-07-15T16:38:33.331Z,3.53
2018-07-15T16:41:01.586Z,2.77
2018-07-15T16:43:30.063Z,3.03
2018-07-15T16:45:58.437Z,3.20
2018-07-15T16:48:26.661Z,2.90
2018-07-15T16:50:54.929Z,3.30
2018-07-15T16:53:23.141Z,3.37
2018-07-15T16:55:51.569Z,2.93
2018-07-15T16:58:19.798Z,2.90
2018-07-15T17:00:48.074Z,2.77
2018-07-15T17:03:16.393Z,4.33
2018-07-15T17:05:44.746Z,2.77
2018-07-15T17:08:13.098Z,4.27
2018-07-15T17:10:41.370Z,3.40
2018-07-15T17:13:09.625Z,3.40
2018-07-15T17:15:38.606Z,3.50
2018-07-15T17:18:07.082Z,3.33
2018-07-15T17:20:35.365Z,3.50
2018-07-15T17:23:03.555Z,3.33
2018-07-15T17:25:31.994Z,3.43
2018-07-15T17:28:00.339Z,3.97
2018-07-15T17:30:28.558Z,4.17
2018-07-15T17:32:56.547Z,3.63
2018-07-15T17:35:24.742Z,3.47
2018-07-15T17:37:52.758Z,5.47
2018-07-15T17:40:21.326Z,3.87
2018-07-15T17:42:49.601Z,3.13
2018-07-15T17:45:17.854Z,3.67
2018-07-15T17:47:46.085Z,3.63
2018-07-15T17:50:14.448Z,4.23
2018-07-15T17:52:42.853Z,3.87
2018-07-15T17:55:11.061Z,4.13
2018-07-15T17:57:39.312Z,6.33
2018-07-15T18:00:08.090Z,3.53
2018-07-15T18:02:36.496Z,4.13
2018-07-15T18:05:04.802Z,3.03
2018-07-15T18:07:33.018Z,4.70
2018-07-15T18:10:01.257Z,4.47
2018-07-15T18:12:29.669Z,5.77
2018-07-15T18:14:58.223Z,7.17
2018-07-15T18:17:26.480Z,4.57
2018-07-15T18:19:54.716Z,3.57
2018-07-15T18:22:22.998Z,4.13
2018-07-15T18:24:51.208Z,5.80
2018-07-15T18:27:19.490Z,4.47
2018-07-15T18:29:47.701Z,4.00
2018-07-15T18:32:15.929Z,3.97
2018-07-15T18:34:44.395Z,3.53
2018-07-15T18:37:12.688Z,5.47
2018-07-15T18:39:40.955Z,3.50
2018-07-15T18:42:09.244Z,3.30
2018-07-15T18:44:37.658Z,3.93
2018-07-15T18:47:06.385Z,4.93
2018-07-15T18:49:34.710Z,3.80
2018-07-15T18:52:03.113Z,3.93
2018-07-15T18:54:31.357Z,4.37
2018-07-15T18:57:00.318Z,3.90
2018-07-15T18:59:28.637Z,4.03
2018-07-15T19:01:56.921Z,4.37
2018-07-15T19:04:25.185Z,4.17
2018-07-15T19:06:53.435Z,5.93
2018-07-15T19:09:21.673Z,4.17
2018-07-15T19:11:49.939Z,7.00
2018-07-15T19:14:18.213Z,4.83
2018-07-15T19:16:46.452Z,5.73
2018-07-15T19:19:14.718Z,5.53
2018-07-15T19:21:43.016Z,6.07
2018-07-15T19:24:11.306Z,4.50
2018-07-15T19:26:39.546Z,4.07
2018-07-15T19:29:07.874Z,5.57
2018-07-15T19:31:36.939Z,3.70
2018-07-15T19:34:05.270Z,4.57
2018-07-15T19:36:33.686Z,4.77
2018-07-15T19:39:01.987Z,4.50
2018-07-15T19:41:30.264Z,4.40
2018-07-15T19:43:59.740Z,5.07
2018-07-15T19:46:27.858Z,4.17
2018-07-15T19:48:56.053Z,4.07
2018-07-15T19:51:24.276Z,6.30
2018-07-15T19:53:52.606Z,5.13
2018-07-15T19:56:21.021Z,4.63
2018-07-15T19:58:49.244Z,5.30
2018-07-15T20:01:17.497Z,4.93
2018-07-15T20:03:45.757Z,4.93
2018-07-15T20:06:14.049Z,8.37
2018-07-15T20:08:42.309Z,4.10
2018-07-15T20:11:10.535Z,4.50
2018-07-15T20:13:38.769Z,4.80
2018-07-15T20:16:07.057Z,4.67
2018-07-15T20:18:35.457Z,3.90
2018-07-15T20:21:03.651Z,4.67
2018-07-15T20:23:31.893Z,4.80
2018-07-15T20:26:00.184Z,4.40
2018-07-15T20:28:28.800Z,4.80
2018-07-15T20:30:57.021Z,4.90
2018-07-15T20:33:25.337Z,7.23
2018-07-15T20:35:53.610Z,4.47
2018-07-15T20:38:22.417Z,5.73
2018-07-15T20:40:50.740Z,4.90
2018-07-15T20:43:19.001Z,6.80
2018-07-15T20:45:47.330Z,4.47
2018-07-15T20:48:15.745Z,4.73
2018-07-15T20:50:44.244Z,5.70
2018-07-15T20:53:12.518Z,5.80
2018-07-15T20:55:40.866Z,6.83
2018-07-15T20:58:09.195Z,5.93
2018-07-15T21:00:37.805Z,5.07
2018-07-15T21:03:06.065Z,4.93
2018-07-15T21:05:34.414Z,5.10
2018-07-15T21:08:02.658Z,6.30
2018-07-15T21:10:31.028Z,6.77
2018-07-15T21:12:59.420Z,7.30
2018-07-15T21:15:27.693Z,4.60
2018-07-15T21:17:56.066Z,4.20
2018-07-15T21:20:24.505Z,8.23
2018-07-15T21:22:52.794Z,5.00
2018-07-15T21:25:21.374Z,4.67
2018-07-15T21:27:49.617Z,5.77
2018-07-15T21:30:18.812Z,6.23
2018-07-15T21:32:47.209Z,5.00
2018-07-15T21:35:15.897Z,4.70
2018-07-15T21:37:44.835Z,5.63
2018-07-15T21:40:13.431Z,4.70
2018-07-15T21:42:41.634Z,5.30
2018-07-15T21:45:09.954Z,5.87
2018-07-15T21:47:38.223Z,5.37
2018-07-15T21:50:06.796Z,4.97
2018-07-15T21:52:35.006Z,5.37
2018-07-15T21:55:03.234Z,6.97
2018-07-15T21:57:31.451Z,5.30
2018-07-15T21:59:59.795Z,5.27
2018-07-15T22:02:27.975Z,5.27
2018-07-15T22:04:57.458Z,6.17
2018-07-15T22:07:37.170Z,4.93
2018-07-15T22:10:14.599Z,6.03
2018-07-15T22:12:43.639Z,5.30
2018-07-15T22:15:12.102Z,4.93
2018-07-15T22:17:42.229Z,6.50
2018-07-15T22:20:11.684Z,5.00
2018-07-15T22:22:40.018Z,8.13
2018-07-15T22:25:08.406Z,6.53
2018-07-15T22:27:37.366Z,5.77
2018-07-15T22:30:05.795Z,7.83
2018-07-15T22:32:37.253Z,5.83
2018-07-15T22:35:05.586Z,6.17
2018-07-15T22:37:33.997Z,6.50
2018-07-15T22:40:02.590Z,6.33
2018-07-15T22:42:30.828Z,6.33
2018-07-15T22:44:59.301Z,6.83
2018-07-15T22:47:27.582Z,7.00
2018-07-15T22:49:55.548Z,5.87
2018-07-15T22:52:23.840Z,8.50
2018-07-15T22:54:52.217Z,7.27
2018-07-15T22:57:20.537Z,5.63
2018-07-15T22:59:48.789Z,6.10
2018-07-15T23:02:17.086Z,6.53
2018-07-15T23:05:56.402Z,6.10
2018-07-15T23:08:25.517Z,6.60
2018-07-15T23:10:53.829Z,6.07
2018-07-15T23:13:22.747Z,5.87
2018-07-15T23:15:51.385Z,6.73
2018-07-15T23:18:19.654Z,6.53
2018-07-15T23:20:48.725Z,6.07
2018-07-15T23:23:17.070Z,6.17
2018-07-15T23:25:46.610Z,6.20
2018-07-15T23:28:16.114Z,5.87
2018-07-15T23:30:44.908Z,6.07
2018-07-15T23:33:13.484Z,5.23
2018-07-15T23:35:41.703Z,5.20
2018-07-15T23:38:09.928Z,5.83
2018-07-15T23:40:38.337Z,5.63
2018-07-15T23:43:06.683Z,6.17
2018-07-15T23:45:35.658Z,5.60
2018-07-15T23:48:03.924Z,7.30
2018-07-15T23:50:32.149Z,5.50
2018-07-15T23:53:00.550Z,5.73
2018-07-15T23:55:29.013Z,5.97
2018-07-15T23:57:57.521Z,6.73
